Time;durP1;ratioP1;P1;durP2;ratioP2;P2;SDS_P1;SDS_P2;PMS_P1;PMS_P2;Temp;Humidity;BMP_temperature;BMP_pressure;BME280_temperature;BME280_humidity;BME280_pressure;Samples;Min_cycle;Max_cycle;Signal;HPM_P1;HPM_P2
2021/05/26 00:00:30;;;;;;;1.72;1.07;;;;;;;8.98;65.37;96789.42;1730220;81;21010;-81
2021/05/26 00:02:57;;;;;;;2.35;0.80;;;;;;;8.99;65.26;96786.66;1726102;81;21017;-81
2021/05/26 00:05:23;;;;;;;3.52;1.00;;;;;;;8.98;65.19;96782.45;1714926;81;20998;-81
2021/05/26 00:07:49;;;;;;;2.00;1.20;;;;;;;8.98;65.14;96790.23;1728812;81;20979;-81
2021/05/26 00:10:16;;;;;;;4.03;1.30;;;;;;;8.96;65.30;96788.77;1727657;81;20955;-81
2021/05/26 00:12:43;;;;;;;1.72;1.20;;;;;;;8.94;65.24;96795.88;1730704;81;20958;-81
2021/05/26 00:15:11;;;;;;;3.10;1.20;;;;;;;8.91;65.40;96787.13;1715644;81;21022;-81
2021/05/26 00:17:36;;;;;;;3.12;1.12;;;;;;;8.86;65.33;96786.81;1734577;81;20989;-81
2021/05/26 00:20:04;;;;;;;2.72;1.12;;;;;;;8.84;65.46;96780.50;1721608;81;21078;-81
2021/05/26 00:22:29;;;;;;;1.27;0.80;;;;;;;8.82;65.32;96779.85;1732487;81;20935;-81
2021/05/26 00:24:55;;;;;;;2.67;1.00;;;;;;;8.84;65.34;96777.91;1728322;81;21240;-81
2021/05/26 00:27:21;;;;;;;1.77;1.10;;;;;;;8.88;65.35;96780.49;1720794;81;21451;-81
2021/05/26 00:29:47;;;;;;;1.20;0.70;;;;;;;8.87;65.32;96792.31;1726896;81;21026;-81
2021/05/26 00:32:14;;;;;;;3.33;1.10;;;;;;;8.84;65.18;96795.23;1717807;82;21070;-81
2021/05/26 00:34:40;;;;;;;1.17;0.60;;;;;;;8.84;65.31;96798.64;1726458;81;20975;-81
2021/05/26 00:37:05;;;;;;;3.35;0.80;;;;;;;8.84;65.28;96795.23;1726763;81;20992;-81
2021/05/26 00:39:31;;;;;;;1.15;0.80;;;;;;;8.81;65.50;96795.56;1651408;85;21034;-81
2021/05/26 00:41:57;;;;;;;1.80;0.90;;;;;;;8.76;65.54;96796.02;1724908;81;20979;-81
2021/05/26 00:44:23;;;;;;;0.95;0.78;;;;;;;8.72;65.71;96786.95;1728706;81;21054;-81
2021/05/26 00:46:49;;;;;;;3.27;1.00;;;;;;;8.68;65.56;96788.25;1737020;82;20999;-81
2021/05/26 00:49:15;;;;;;;2.45;1.10;;;;;;;8.65;65.65;96793.27;1723234;81;21430;-81
2021/05/26 00:51:41;;;;;;;4.33;0.90;;;;;;;8.64;65.63;96789.55;1722885;81;20931;-81
2021/05/26 00:54:07;;;;;;;4.33;1.00;;;;;;;8.66;65.64;96788.41;1730542;82;20947;-81
2021/05/26 00:56:33;;;;;;;4.20;1.10;;;;;;;8.67;65.56;96786.63;1724998;81;21267;-81
2021/05/26 00:59:02;;;;;;;1.12;0.80;;;;;;;8.69;65.36;96791.98;1726869;81;20943;-81
2021/05/26 01:01:27;;;;;;;1.15;0.78;;;;;;;8.73;65.47;96789.88;1728813;81;21034;-81
2021/05/26 01:03:56;;;;;;;0.80;0.68;;;;;;;8.72;65.59;96789.06;1724528;81;20966;-81
2021/05/26 01:06:22;;;;;;;3.08;0.80;;;;;;;8.70;65.55;96781.94;1727915;81;21027;-81
2021/05/26 01:08:48;;;;;;;1.50;0.80;;;;;;;8.69;65.53;96773.03;1731411;81;21259;-81
2021/05/26 01:11:14;;;;;;;1.05;0.70;;;;;;;8.67;65.57;96777.08;1733302;80;20990;-81
2021/05/26 01:13:40;;;;;;;2.25;0.85;;;;;;;8.63;65.54;96770.61;1728165;81;21280;-81
2021/05/26 01:16:06;;;;;;;1.75;0.90;;;;;;;8.59;65.64;96766.69;1726649;80;21030;-81
2021/05/26 01:18:33;;;;;;;1.10;0.80;;;;;;;8.55;65.47;96771.06;1699440;82;21058;-81
2021/05/26 01:21:06;;;;;;;1.20;0.90;;;;;;;8.52;65.56;96768.31;1736332;81;21053;-81
2021/05/26 01:23:32;;;;;;;1.45;0.78;;;;;;;8.52;65.67;96767.50;1666275;84;21008;-81
2021/05/26 01:26:03;;;;;;;3.05;0.85;;;;;;;8.51;65.61;96771.88;1723148;80;21041;-81
2021/05/26 01:28:30;;;;;;;1.45;0.70;;;;;;;8.53;65.55;96774.30;1720364;80;20974;-81
2021/05/26 01:30:56;;;;;;;2.90;1.05;;;;;;;8.55;65.48;96778.34;1741317;81;21041;-81
2021/05/26 01:33:22;;;;;;;1.22;0.80;;;;;;;8.59;65.22;96776.24;1720754;81;20998;-81
2021/05/26 01:35:48;;;;;;;1.80;0.53;;;;;;;8.61;65.26;96773.81;1712799;81;21331;-81
2021/05/26 01:38:21;;;;;;;1.00;0.65;;;;;;;8.63;65.14;96773.20;1727359;80;21097;-81
2021/05/26 01:40:49;;;;;;;1.85;0.80;;;;;;;8.65;64.80;96769.15;1734551;80;21009;-81
2021/05/26 01:43:15;;;;;;;2.00;0.62;;;;;;;8.65;64.57;96776.44;1728055;81;21049;-82
2021/05/26 01:45:41;;;;;;;1.67;0.70;;;;;;;8.66;64.61;96775.46;1742567;80;21005;-81
2021/05/26 01:48:08;;;;;;;2.00;0.68;;;;;;;8.68;64.26;96776.59;1700079;82;20955;-81
2021/05/26 01:50:35;;;;;;;1.02;0.55;;;;;;;8.67;64.01;96771.91;1738736;80;20934;-81
2021/05/26 01:53:05;;;;;;;0.70;0.57;;;;;;;8.64;63.95;96773.52;1730031;80;20962;-81
2021/05/26 01:55:34;;;;;;;3.50;0.80;;;;;;;8.63;63.87;96761.54;1746996;80;20995;-81
2021/05/26 01:58:01;;;;;;;1.27;0.60;;;;;;;8.66;63.57;96768.98;1734899;81;21058;-81
2021/05/26 02:00:27;;;;;;;2.17;0.80;;;;;;;8.66;63.75;96769.47;1721244;80;21132;-81
2021/05/26 02:02:53;;;;;;;1.05;0.72;;;;;;;8.64;63.47;96773.52;1740516;80;21283;-81
2021/05/26 02:05:18;;;;;;;1.52;0.60;;;;;;;8.65;63.50;96780.32;1736650;80;21037;-81
2021/05/26 02:07:44;;;;;;;1.98;0.80;;;;;;;8.64;63.42;96786.47;1729136;80;20978;-81
2021/05/26 02:10:16;;;;;;;1.57;0.60;;;;;;;8.64;63.38;96785.17;1734642;80;21232;-81
2021/05/26 02:12:44;;;;;;;2.17;1.22;;;;;;;8.64;62.70;96780.00;1736841;80;21311;-81
2021/05/26 02:15:13;;;;;;;1.55;0.62;;;;;;;8.65;62.56;96781.61;1673931;84;21081;-81
2021/05/26 02:17:39;;;;;;;1.27;0.45;;;;;;;8.65;62.32;96798.45;1740206;80;21001;-81
2021/05/26 02:20:07;;;;;;;2.62;0.80;;;;;;;8.67;62.08;96800.88;1742993;80;21271;-81
2021/05/26 02:22:34;;;;;;;0.98;0.60;;;;;;;8.70;61.75;96792.78;1727580;82;21036;-81
2021/05/26 02:25:00;;;;;;;2.05;0.68;;;;;;;8.72;61.87;96792.14;1730685;80;21374;-81
2021/05/26 02:27:26;;;;;;;1.75;0.60;;;;;;;8.71;61.61;96795.21;1728679;80;20993;-81
2021/05/26 02:29:52;;;;;;;1.02;0.60;;;;;;;8.71;61.63;96799.59;1734480;80;21066;-81
2021/05/26 02:32:18;;;;;;;0.80;0.60;;;;;;;8.71;61.26;96793.11;1714256;82;21355;-81
2021/05/26 02:34:43;;;;;;;1.27;0.80;;;;;;;8.72;61.25;96793.44;1748418;82;20982;-81
2021/05/26 02:37:09;;;;;;;1.27;0.40;;;;;;;8.73;61.45;96793.76;1734354;80;20986;-81
2021/05/26 02:39:35;;;;;;;2.10;0.82;;;;;;;8.72;61.29;96791.66;1665427;84;21001;-82
2021/05/26 02:42:01;;;;;;;2.25;0.90;;;;;;;8.70;61.54;96785.83;1739580;80;20946;-82
2021/05/26 02:44:26;;;;;;;1.70;0.57;;;;;;;8.69;61.53;96780.80;1738562;80;20903;-81
2021/05/26 02:46:52;;;;;;;2.08;0.90;;;;;;;8.67;61.76;96772.39;1732304;80;20954;-81
2021/05/26 02:49:18;;;;;;;4.03;1.75;;;;;;;8.66;61.37;96770.28;1739964;80;21271;-81
2021/05/26 02:51:43;;;;;;;3.58;1.30;;;;;;;8.65;61.56;96762.67;1743115;82;20962;-81
2021/05/26 02:54:10;;;;;;;1.92;0.70;;;;;;;8.64;63.08;96764.94;1734686;80;21046;-81
2021/05/26 02:56:35;;;;;;;1.45;0.65;;;;;;;8.61;61.79;96775.59;1737586;80;21254;-81
2021/05/26 02:59:04;;;;;;;1.85;0.70;;;;;;;8.59;61.97;96771.06;1734687;80;20955;-81
2021/05/26 03:01:30;;;;;;;5.47;0.70;;;;;;;8.59;62.99;96780.12;1733848;80;21029;-81
2021/05/26 03:03:56;;;;;;;1.32;0.80;;;;;;;8.54;62.57;96793.56;1738166;82;20932;-81
2021/05/26 03:06:22;;;;;;;2.98;0.70;;;;;;;8.53;62.02;96800.20;1737129;82;21061;-81
2021/05/26 03:08:47;;;;;;;1.17;0.72;;;;;;;8.54;62.07;96800.04;1748244;80;21062;-81
2021/05/26 03:11:14;;;;;;;0.90;0.70;;;;;;;8.53;62.52;96810.08;1650799;85;21372;-82
2021/05/26 03:13:40;;;;;;;4.90;0.90;;;;;;;8.52;62.92;96805.87;1738091;80;20951;-81
2021/05/26 03:16:08;;;;;;;1.98;0.70;;;;;;;8.52;62.55;96809.75;1742957;80;21017;-81
2021/05/26 03:18:34;;;;;;;1.65;0.60;;;;;;;8.51;62.67;96797.77;1732567;80;21014;-81
2021/05/26 03:21:00;;;;;;;2.08;0.70;;;;;;;8.49;63.36;96798.42;1741452;80;21414;-81
2021/05/26 03:23:25;;;;;;;1.35;0.50;;;;;;;8.47;63.03;96805.54;1745809;80;21310;-81
2021/05/26 03:25:51;;;;;;;3.17;0.90;;;;;;;8.48;62.98;96798.58;1683474;84;20961;-81
2021/05/26 03:28:17;;;;;;;1.22;0.60;;;;;;;8.53;62.80;96806.19;1744269;82;21302;-81
2021/05/26 03:30:44;;;;;;;2.92;0.70;;;;;;;8.59;62.09;96812.02;1744700;82;21291;-81
2021/05/26 03:33:11;;;;;;;2.37;0.70;;;;;;;8.64;62.23;96803.31;1743799;80;21001;-81
2021/05/26 03:35:39;;;;;;;1.52;0.50;;;;;;;8.66;62.51;96803.95;1736247;80;20981;-81
2021/05/26 03:38:05;;;;;;;2.17;0.70;;;;;;;8.66;62.49;96806.55;1740725;80;21012;-81
2021/05/26 03:40:31;;;;;;;2.02;0.62;;;;;;;8.70;61.53;96808.33;1751025;80;20964;-81
2021/05/26 03:42:57;;;;;;;1.55;0.70;;;;;;;8.78;61.64;96808.81;1746483;80;21531;-81
2021/05/26 03:45:23;;;;;;;2.33;0.60;;;;;;;8.81;61.91;96810.62;1718220;82;20974;-80
2021/05/26 03:47:48;;;;;;;1.12;0.50;;;;;;;8.82;61.06;96818.72;1744548;80;20981;-81
2021/05/26 03:50:14;;;;;;;3.33;0.85;;;;;;;8.84;60.95;96814.67;1702732;82;20974;-80
2021/05/26 03:52:45;;;;;;;1.32;0.50;;;;;;;8.88;61.03;96818.07;1737740;80;21341;-80
2021/05/26 03:55:13;;;;;;;2.95;0.55;;;;;;;8.91;60.58;96807.86;1674465;84;20982;-80
2021/05/26 03:57:39;;;;;;;2.12;0.55;;;;;;;8.95;60.72;96809.19;1742004;80;21022;-80
2021/05/26 04:00:07;;;;;;;2.77;0.70;;;;;;;8.97;60.37;96814.53;1680708;84;21049;-81
2021/05/26 04:02:33;;;;;;;1.67;0.75;;;;;;;8.99;60.49;96815.17;1742689;80;20985;-80
2021/05/26 04:04:59;;;;;;;1.87;0.47;;;;;;;9.01;60.89;96824.08;1753727;80;21018;-81
2021/05/26 04:07:25;;;;;;;1.87;0.60;;;;;;;9.01;60.83;96827.97;1738571;81;20995;-81
2021/05/26 04:09:51;;;;;;;2.90;0.62;;;;;;;9.00;60.64;96827.65;1725983;81;20979;-81
2021/05/26 04:12:16;;;;;;;1.47;0.72;;;;;;;9.00;60.58;96824.57;1724758;81;21399;-81
2021/05/26 04:14:42;;;;;;;1.82;0.70;;;;;;;9.04;60.15;96832.83;1707099;82;21089;-80
2021/05/26 04:17:08;;;;;;;1.70;0.57;;;;;;;9.08;60.35;96829.42;1735494;81;20962;-81
2021/05/26 04:19:34;;;;;;;1.65;0.40;;;;;;;9.09;60.50;96826.66;1732714;81;21058;-81
2021/05/26 04:21:59;;;;;;;1.90;0.50;;;;;;;9.10;60.39;96824.88;1733727;81;21026;-81
2021/05/26 04:24:25;;;;;;;0.68;0.40;;;;;;;9.13;60.17;96828.47;1716936;81;21038;-80
2021/05/26 04:26:51;;;;;;;1.98;0.80;;;;;;;9.13;60.39;96831.88;1727075;81;21058;-81
2021/05/26 04:29:18;;;;;;;2.85;0.80;;;;;;;9.13;60.87;96833.66;1733549;81;21011;-81
2021/05/26 04:31:46;;;;;;;1.12;0.50;;;;;;;9.13;61.34;96839.66;1744730;81;21110;-80
2021/05/26 04:34:13;;;;;;;2.62;0.80;;;;;;;9.12;61.58;96840.63;1735660;81;20951;-80
2021/05/26 04:36:39;;;;;;;2.90;0.50;;;;;;;9.12;61.02;96842.41;1741502;81;20991;-80
2021/05/26 04:39:05;;;;;;;2.58;0.60;;;;;;;9.13;60.88;96838.84;1730674;81;20950;-80
2021/05/26 04:41:30;;;;;;;2.10;0.65;;;;;;;9.14;60.39;96831.39;1724265;81;20942;-81
2021/05/26 04:43:56;;;;;;;2.00;0.60;;;;;;;9.16;60.81;96831.55;1733738;81;20954;-81
2021/05/26 04:46:22;;;;;;;1.85;0.55;;;;;;;9.19;60.81;96833.00;1724242;81;20931;-81
2021/05/26 04:48:48;;;;;;;1.67;0.62;;;;;;;9.22;60.54;96837.37;1707372;82;21342;-81
2021/05/26 04:51:13;;;;;;;1.67;0.70;;;;;;;9.25;60.62;96831.05;1734830;81;21026;-81
2021/05/26 04:53:39;;;;;;;1.57;0.60;;;;;;;9.28;60.54;96834.64;1725330;81;21015;-80
2021/05/26 04:56:05;;;;;;;1.40;0.60;;;;;;;9.29;60.66;96831.07;1716430;81;20966;-81
2021/05/26 04:58:31;;;;;;;2.20;0.80;;;;;;;9.31;59.78;96831.23;1738596;81;21034;-81
2021/05/26 05:00:57;;;;;;;0.93;0.45;;;;;;;9.36;60.09;96832.52;1740543;81;20978;-80
2021/05/26 05:03:22;;;;;;;2.05;0.80;;;;;;;9.40;60.63;96837.20;1734927;81;21002;-81
2021/05/26 05:05:48;;;;;;;2.30;0.60;;;;;;;9.44;59.84;96836.41;1726352;81;20955;-81
2021/05/26 05:08:14;;;;;;;1.92;0.72;;;;;;;9.48;60.23;96833.33;1710771;81;20927;-82
2021/05/26 05:10:39;;;;;;;3.85;0.68;;;;;;;9.53;60.03;96842.72;1733512;81;20958;-82
2021/05/26 05:13:05;;;;;;;3.60;2.02;;;;;;;9.58;59.75;96837.02;1721944;81;21002;-82
2021/05/26 05:15:32;;;;;;;405.35;243.25;;;;;;;9.64;59.83;96835.09;1728533;81;20966;-82
2021/05/26 05:17:58;;;;;;;67.25;37.13;;;;;;;9.69;60.00;96846.27;1725362;81;20998;-82
2021/05/26 05:20:24;;;;;;;23.85;12.80;;;;;;;9.73;59.50;96849.66;1733527;81;21002;-82
2021/05/26 05:22:50;;;;;;;10.88;4.87;;;;;;;9.79;59.67;96846.91;1729192;81;20971;-82
2021/05/26 05:25:16;;;;;;;3.65;2.40;;;;;;;9.84;59.34;96841.53;1732714;81;20955;-82
2021/05/26 05:27:42;;;;;;;2.83;1.47;;;;;;;9.89;59.82;96841.84;1731384;80;21303;-82
2021/05/26 05:30:09;;;;;;;2.42;0.78;;;;;;;9.96;59.61;96841.19;1731045;81;21344;-82
2021/05/26 05:32:35;;;;;;;3.77;0.68;;;;;;;10.02;58.79;96844.41;1749530;81;21030;-82
2021/05/26 05:35:01;;;;;;;2.90;0.95;;;;;;;10.10;59.07;96843.91;1721558;81;21034;-82
2021/05/26 05:37:27;;;;;;;3.72;0.60;;;;;;;10.15;58.82;96843.40;1718263;81;20986;-81
2021/05/26 05:39:53;;;;;;;1.57;0.60;;;;;;;10.20;58.89;96841.91;1723135;81;20965;-82
2021/05/26 05:42:19;;;;;;;2.62;1.07;;;;;;;10.27;58.97;96841.28;1717736;81;20950;-81
2021/05/26 05:44:46;;;;;;;4.10;0.75;;;;;;;10.32;58.81;96838.50;1730997;81;20951;-81
2021/05/26 05:47:12;;;;;;;2.85;0.60;;;;;;;10.39;58.79;96839.42;1724427;81;21184;-81
2021/05/26 05:49:39;;;;;;;2.33;0.62;;;;;;;10.45;58.18;96837.96;1728846;81;21118;-81
2021/05/26 05:52:04;;;;;;;1.30;0.60;;;;;;;10.51;57.71;96837.27;1720172;81;21053;-81
2021/05/26 05:54:30;;;;;;;1.50;0.55;;;;;;;10.57;58.24;96838.37;1727751;81;21308;-81
2021/05/26 05:56:56;;;;;;;1.60;0.50;;;;;;;10.62;57.85;96843.39;1729059;81;20961;-80
2021/05/26 05:59:21;;;;;;;2.17;0.60;;;;;;;10.66;58.03;96834.77;1720471;81;20974;-81
2021/05/26 06:01:47;;;;;;;2.30;0.80;;;;;;;10.72;58.15;96834.88;1719577;81;21315;-80
2021/05/26 06:04:13;;;;;;;2.15;0.50;;;;;;;10.79;58.50;96838.91;1719197;81;20991;-81
2021/05/26 06:06:39;;;;;;;2.20;0.70;;;;;;;10.86;57.92;96837.73;1735116;81;21018;-80
2021/05/26 06:09:05;;;;;;;3.00;0.70;;;;;;;10.93;56.87;96842.58;1746346;80;21681;-81
2021/05/26 06:11:34;;;;;;;1.27;0.60;;;;;;;10.99;57.19;96836.67;1742383;80;21009;-80
2021/05/26 06:14:04;;;;;;;1.90;0.62;;;;;;;11.08;57.73;96832.55;1700064;82;21025;-81
2021/05/26 06:16:28;;;;;;;1.60;0.65;;;;;;;11.17;57.87;96842.39;1739090;80;21029;-82
2021/05/26 06:18:54;;;;;;;1.45;0.80;;;;;;;11.22;57.57;96830.97;1736113;80;21057;-81
2021/05/26 06:21:20;;;;;;;2.45;0.95;;;;;;;11.34;57.72;96834.77;1737618;80;21312;-83
2021/05/26 06:23:45;;;;;;;2.58;1.10;;;;;;;11.45;56.49;96834.05;1735399;80;20997;-82
2021/05/26 06:26:11;;;;;;;1.80;0.90;;;;;;;11.51;57.35;96829.44;1742930;80;20982;-83
2021/05/26 06:28:37;;;;;;;2.83;1.12;;;;;;;11.59;56.42;96835.88;1743478;80;20994;-83
2021/05/26 06:31:05;;;;;;;1.85;1.40;;;;;;;11.65;56.63;96825.56;1701012;82;20960;-83
2021/05/26 06:33:31;;;;;;;2.40;0.70;;;;;;;11.77;55.72;96829.05;1737086;80;21026;-82
2021/05/26 06:35:57;;;;;;;2.02;0.70;;;;;;;11.85;56.55;96832.88;1744130;80;20966;-82
2021/05/26 06:38:24;;;;;;;1.27;0.60;;;;;;;11.93;55.48;96832.81;1747637;80;20994;-82
2021/05/26 06:40:50;;;;;;;0.98;0.60;;;;;;;11.98;54.66;96827.38;1743542;80;20962;-82
2021/05/26 06:43:16;;;;;;;2.70;0.70;;;;;;;12.05;55.02;96833.19;1691497;82;21022;-83
2021/05/26 06:45:42;;;;;;;2.05;0.50;;;;;;;12.11;54.53;96827.24;1747584;80;21006;-82
2021/05/26 06:48:08;;;;;;;1.62;0.72;;;;;;;12.17;54.90;96826.02;1733009;80;21907;-82
2021/05/26 06:50:35;;;;;;;2.37;0.62;;;;;;;12.26;55.35;96830.66;1744008;80;21050;-82
2021/05/26 06:53:00;;;;;;;3.35;0.90;;;;;;;12.35;55.24;96828.24;1736321;80;21271;-83
2021/05/26 06:55:26;;;;;;;1.80;0.68;;;;;;;12.45;54.46;96820.16;1740131;80;21025;-82
2021/05/26 06:57:52;;;;;;;2.95;0.90;;;;;;;12.53;54.53;96825.28;1742360;80;21272;-83
2021/05/26 07:00:18;;;;;;;2.27;1.00;;;;;;;12.61;54.22;96823.36;1744640;80;20966;-83
2021/05/26 07:02:44;;;;;;;1.45;0.70;;;;;;;12.72;54.11;96824.69;1745666;80;21064;-83
2021/05/26 07:05:11;;;;;;;2.17;1.20;;;;;;;12.81;53.85;96827.98;1733228;80;20986;-82
2021/05/26 07:07:37;;;;;;;4.58;0.98;;;;;;;12.90;52.14;96824.27;1742973;80;20990;-82
2021/05/26 07:10:04;;;;;;;2.67;0.82;;;;;;;12.97;52.72;96822.53;1744912;80;21366;-82
2021/05/26 07:12:30;;;;;;;4.30;1.05;;;;;;;12.99;52.09;96815.31;1715253;82;20978;-82
2021/05/26 07:14:56;;;;;;;4.75;0.98;;;;;;;13.09;52.06;96814.52;1665018;84;21053;-82
2021/05/26 07:17:22;;;;;;;3.42;1.10;;;;;;;13.17;51.62;96811.77;1733514;80;20968;-82
2021/05/26 07:19:48;;;;;;;1.90;0.62;;;;;;;13.29;52.41;96824.36;1678798;84;20974;-82
2021/05/26 07:22:13;;;;;;;2.85;1.05;;;;;;;13.38;51.91;96814.92;1748552;80;20970;-82
2021/05/26 07:24:39;;;;;;;2.58;0.80;;;;;;;13.46;51.32;96817.38;1736014;80;20986;-82
2021/05/26 07:27:05;;;;;;;2.05;0.57;;;;;;;13.54;50.72;96806.00;1747495;80;21323;-82
2021/05/26 07:29:31;;;;;;;1.67;0.60;;;;;;;13.57;50.29;96810.03;1742076;80;20962;-82
2021/05/26 07:31:56;;;;;;;3.15;0.80;;;;;;;13.64;51.33;96801.73;1747257;80;21085;-82
2021/05/26 07:34:22;;;;;;;1.55;0.70;;;;;;;13.75;51.14;96807.25;1743008;80;21120;-81
2021/05/26 07:36:48;;;;;;;2.00;0.60;;;;;;;13.86;50.23;96809.84;1686308;84;20993;-83
2021/05/26 07:39:14;;;;;;;2.33;0.82;;;;;;;13.94;49.55;96791.39;1759951;80;21018;-82
2021/05/26 07:41:40;;;;;;;1.85;0.70;;;;;;;14.10;49.93;96802.03;1736908;80;21026;-83
2021/05/26 07:44:06;;;;;;;1.57;0.50;;;;;;;14.30;48.57;96802.92;1731829;80;20966;-83
2021/05/26 07:46:32;;;;;;;3.25;0.70;;;;;;;14.51;49.70;96803.86;1736533;80;21278;-82
2021/05/26 07:49:00;;;;;;;1.42;0.60;;;;;;;14.67;48.65;96796.97;1743324;80;21026;-82
2021/05/26 07:51:30;;;;;;;2.12;0.80;;;;;;;14.75;48.01;96802.01;1741315;80;20970;-82
2021/05/26 07:53:57;;;;;;;1.60;0.53;;;;;;;14.84;47.60;96802.65;1704536;82;21082;-82
2021/05/26 07:56:23;;;;;;;1.80;0.65;;;;;;;14.93;48.41;96797.02;1734028;80;21402;-83
2021/05/26 07:58:49;;;;;;;2.55;1.07;;;;;;;14.99;46.99;96807.20;1732801;80;20910;-82
2021/05/26 08:01:14;;;;;;;1.45;0.47;;;;;;;15.08;47.42;96800.77;1737411;80;20976;-82
2021/05/26 08:03:40;;;;;;;1.90;0.50;;;;;;;15.27;47.88;96795.23;1696111;82;21123;-82
2021/05/26 08:06:06;;;;;;;1.67;0.70;;;;;;;15.48;47.28;96787.70;1704020;80;21471;-81
2021/05/26 08:08:34;;;;;;;3.35;1.15;;;;;;;15.70;47.69;96790.42;1705396;82;21346;-82
2021/05/26 08:11:00;;;;;;;17.67;10.60;;;;;;;16.00;47.93;96782.91;1713046;80;21306;-81
2021/05/26 08:13:25;;;;;;;4.20;2.12;;;;;;;16.21;47.70;96772.16;1734341;80;21029;-82
2021/05/26 08:15:53;;;;;;;4.83;2.87;;;;;;;16.43;45.82;96770.06;1734152;80;21088;-84
2021/05/26 08:18:20;;;;;;;4.28;1.32;;;;;;;16.64;46.70;96774.70;1736824;80;20985;-82
2021/05/26 08:20:47;;;;;;;2.92;0.70;;;;;;;16.80;43.33;96766.36;1737123;80;20950;-83
2021/05/26 08:23:16;;;;;;;2.87;0.60;;;;;;;16.83;41.27;96762.51;1745009;80;20958;-84
2021/05/26 08:25:42;;;;;;;1.87;0.70;;;;;;;16.92;43.46;96770.41;1732781;80;21310;-84
2021/05/26 08:28:07;;;;;;;2.85;0.80;;;;;;;16.96;43.61;96769.80;1745157;80;21022;-84
2021/05/26 08:30:34;;;;;;;2.87;0.80;;;;;;;17.03;44.23;96773.67;1735649;82;21358;-84
2021/05/26 08:33:00;;;;;;;1.60;0.60;;;;;;;17.15;43.47;96773.80;1743452;80;21041;-82
2021/05/26 08:35:26;;;;;;;2.33;0.80;;;;;;;17.18;42.80;96770.23;1740768;82;21275;-82
2021/05/26 08:37:54;;;;;;;2.55;0.72;;;;;;;17.21;42.47;96773.74;1738318;80;21077;-82
2021/05/26 08:40:19;;;;;;;2.40;1.00;;;;;;;17.22;42.69;96775.34;1745092;80;21335;-82
2021/05/26 08:42:45;;;;;;;3.30;1.32;;;;;;;17.15;41.79;96768.55;1731928;80;21007;-82
2021/05/26 08:45:13;;;;;;;6.53;5.12;;;;;;;17.02;42.46;96754.50;1729631;80;21059;-83
2021/05/26 08:47:43;;;;;;;3.65;1.50;;;;;;;16.94;42.33;96760.53;1742361;80;21259;-84
2021/05/26 08:50:09;;;;;;;2.10;0.82;;;;;;;17.04;43.20;96756.39;1730085;80;21030;-84
2021/05/26 08:52:35;;;;;;;3.22;1.02;;;;;;;17.18;42.23;96757.62;1654677;85;20991;-83
2021/05/26 08:55:01;;;;;;;2.22;0.90;;;;;;;17.08;41.59;96759.39;1751312;80;21272;-82
2021/05/26 08:57:27;;;;;;;3.67;1.25;;;;;;;16.90;42.64;96764.06;1734625;80;21013;-82
2021/05/26 08:59:53;;;;;;;3.33;1.05;;;;;;;16.78;42.09;96760.02;1740652;80;20986;-83
2021/05/26 09:02:18;;;;;;;6.35;1.30;;;;;;;16.84;41.57;96757.55;1754827;80;20943;-84
2021/05/26 09:04:44;;;;;;;1.62;0.78;;;;;;;16.88;41.45;96760.84;1743356;80;21025;-82
2021/05/26 09:07:19;;;;;;;2.37;0.90;;;;;;;16.95;42.23;96760.83;1732794;80;21088;-82
2021/05/26 09:09:53;;;;;;;4.35;1.00;;;;;;;16.87;43.07;96757.13;1747772;80;21006;-82
2021/05/26 09:12:36;;;;;;;2.47;0.80;;;;;;;16.77;42.16;96757.61;1738358;80;20989;-81
2021/05/26 09:15:08;;;;;;;2.10;0.80;;;;;;;16.63;40.27;96759.47;1721706;80;21006;-83
2021/05/26 09:17:34;;;;;;;3.75;0.95;;;;;;;16.50;41.03;96766.09;1741725;80;21070;-83
2021/05/26 09:20:27;;;;;;;2.47;0.65;;;;;;;16.39;41.09;96764.11;1733519;80;20954;-83
2021/05/26 09:23:27;;;;;;;2.98;0.65;;;;;;;16.36;42.67;96761.41;1745325;80;20961;-83
2021/05/26 09:26:00;;;;;;;1.67;0.53;;;;;;;16.42;41.07;96764.49;1729736;80;21267;-83
2021/05/26 09:28:34;;;;;;;3.05;0.78;;;;;;;16.34;42.20;96756.88;1740029;80;20986;-83
2021/05/26 09:31:06;;;;;;;3.70;0.90;;;;;;;16.39;42.10;96751.80;1738858;80;22371;-82
2021/05/26 09:33:44;;;;;;;3.25;0.80;;;;;;;16.37;41.34;96750.41;1734599;80;21010;-83
2021/05/26 09:36:16;;;;;;;1.35;0.60;;;;;;;16.37;42.09;96746.47;1748145;80;21022;-82
2021/05/26 09:38:56;;;;;;;3.02;0.88;;;;;;;16.33;41.28;96744.78;1737638;80;20959;-83
2021/05/26 09:41:36;;;;;;;2.47;0.70;;;;;;;16.24;41.21;96742.09;1740539;80;21010;-83
2021/05/26 09:44:10;;;;;;;2.65;1.02;;;;;;;16.14;42.61;96735.99;1741033;80;21299;-83
2021/05/26 09:46:38;;;;;;;4.62;0.93;;;;;;;16.06;42.28;96741.95;1745526;80;21366;-83
2021/05/26 09:49:17;;;;;;;2.47;1.07;;;;;;;15.98;43.71;96743.52;1743576;80;20973;-83
2021/05/26 09:51:55;;;;;;;2.92;0.70;;;;;;;15.88;43.29;96744.73;1715075;82;21216;-82
2021/05/26 09:54:29;;;;;;;2.58;1.20;;;;;;;15.87;42.82;96739.70;1728199;80;20965;-82
2021/05/26 09:57:06;;;;;;;2.10;0.72;;;;;;;15.81;42.06;96739.23;1741467;80;20958;-82
2021/05/26 09:59:34;;;;;;;2.92;0.90;;;;;;;15.79;42.84;96734.70;1741424;80;21096;-82
2021/05/26 10:01:59;;;;;;;1.12;0.65;;;;;;;15.77;43.30;96728.84;1755099;80;20994;-83
2021/05/26 10:04:25;;;;;;;2.87;0.90;;;;;;;15.80;43.68;96733.69;1698037;82;21263;-81
2021/05/26 10:06:55;;;;;;;3.35;1.02;;;;;;;15.85;43.72;96729.44;1746421;80;21665;-83
2021/05/26 10:09:39;;;;;;;2.65;0.90;;;;;;;15.85;42.55;96720.27;1742745;80;21045;-83
2021/05/26 10:12:06;;;;;;;2.65;1.15;;;;;;;15.87;42.08;96720.05;1713930;80;21307;-82
2021/05/26 10:14:32;;;;;;;2.00;0.78;;;;;;;15.87;43.75;96717.43;1738799;80;21512;-82
2021/05/26 10:16:59;;;;;;;2.75;0.90;;;;;;;15.87;42.92;96716.13;1750617;82;21018;-83
2021/05/26 10:19:25;;;;;;;3.67;1.05;;;;;;;15.88;43.59;96717.73;1738893;80;21323;-82
2021/05/26 10:21:57;;;;;;;2.77;0.72;;;;;;;15.86;42.84;96723.18;1732549;80;20969;-83
2021/05/26 10:24:23;;;;;;;2.10;0.88;;;;;;;15.63;42.41;96690.61;1742610;82;21096;-83
2021/05/26 10:26:59;;;;;;;4.80;1.10;;;;;;;15.85;42.77;96711.09;1672986;84;21354;-83
2021/05/26 10:29:31;;;;;;;3.25;1.00;;;;;;;16.10;43.09;96703.83;1740666;80;20962;-81
2021/05/26 10:32:00;;;;;;;1.87;1.15;;;;;;;16.29;42.26;96711.33;1733399;80;21041;-82
2021/05/26 10:34:51;;;;;;;2.10;0.70;;;;;;;16.18;43.64;96706.23;1703067;82;20989;-82
2021/05/26 10:37:26;;;;;;;1.90;0.90;;;;;;;16.07;43.25;96705.05;1740711;80;21065;-82
2021/05/26 10:39:52;;;;;;;2.17;1.00;;;;;;;16.12;44.24;96706.56;1723563;82;20978;-82
2021/05/26 10:42:28;;;;;;;3.30;1.02;;;;;;;16.22;43.46;96692.98;1741976;80;21017;-82
2021/05/26 10:45:09;;;;;;;3.33;1.27;;;;;;;16.25;44.35;96690.45;1738878;80;21018;-82
2021/05/26 10:47:44;;;;;;;4.03;1.60;;;;;;;16.25;44.14;96692.56;1703210;82;20943;-83
2021/05/26 10:50:24;;;;;;;3.27;1.15;;;;;;;16.35;44.79;96681.12;1742686;80;20978;-82
2021/05/26 10:53:01;;;;;;;4.42;0.98;;;;;;;16.52;45.57;96689.30;1737263;80;20948;-83
2021/05/26 10:55:47;;;;;;;2.00;1.17;;;;;;;16.45;44.07;96689.86;1674451;84;21331;-83
2021/05/26 10:58:25;;;;;;;2.58;0.88;;;;;;;16.33;45.15;96688.91;1744365;80;20962;-82
2021/05/26 11:01:05;;;;;;;1.65;0.90;;;;;;;16.27;45.23;96684.48;1739789;80;21033;-83
2021/05/26 11:03:37;;;;;;;2.45;0.88;;;;;;;16.21;45.54;96675.66;1735984;80;21045;-82
2021/05/26 11:06:24;;;;;;;1.75;0.70;;;;;;;16.25;44.72;96674.72;1732685;80;21342;-83
2021/05/26 11:08:53;;;;;;;3.37;0.90;;;;;;;16.35;44.30;96669.84;1720835;81;21046;-84
2021/05/26 11:11:39;;;;;;;1.82;0.80;;;;;;;16.53;43.74;96667.30;1729898;81;21636;-82
2021/05/26 11:14:14;;;;;;;2.98;1.35;;;;;;;16.71;44.02;96659.53;1735698;82;20951;-82
2021/05/26 11:16:55;;;;;;;3.08;1.00;;;;;;;16.83;43.83;96662.78;1728398;82;21248;-83
2021/05/26 11:19:30;;;;;;;3.02;0.98;;;;;;;16.95;43.56;96661.08;1725888;81;21023;-82
2021/05/26 11:22:01;;;;;;;2.50;1.32;;;;;;;16.96;44.05;96655.61;1723772;81;21009;-82
2021/05/26 11:24:33;;;;;;;2.12;1.10;;;;;;;16.93;42.95;96652.63;1719192;81;21002;-82
2021/05/26 11:27:00;;;;;;;2.22;0.80;;;;;;;16.90;42.54;96638.59;1724432;81;21076;-82
2021/05/26 11:29:34;;;;;;;1.98;0.80;;;;;;;16.86;44.37;96634.80;1718164;81;21027;-82
2021/05/26 11:32:21;;;;;;;3.92;0.85;;;;;;;16.93;42.85;96635.05;1649352;85;21398;-83
2021/05/26 11:34:49;;;;;;;3.15;0.98;;;;;;;17.24;43.62;96646.45;1719320;81;21026;-82
2021/05/26 11:37:35;;;;;;;2.50;0.80;;;;;;;17.51;42.73;96636.49;1718828;81;21028;-82
2021/05/26 11:40:02;;;;;;;2.12;0.90;;;;;;;17.74;43.00;96622.23;1721670;81;20994;-82